Time;durP1;ratioP1;P1;durP2;ratioP2;P2;SDS_P1;SDS_P2;PMS_P1;PMS_P2;Temp;Humidity;BMP_temperature;BMP_pressure;BME280_temperature;BME280_humidity;BME280_pressure;Samples;Min_cycle;Max_cycle;Signal;HPM_P1;HPM_P2
2023/08/28 00:02:02;;;;;;;3.00;2.03;;;25.50;57.40;;;;;;5032813;28;20204;-72
2023/08/28 00:04:28;;;;;;;4.40;2.10;;;25.50;57.40;;;;;;5032429;28;20461;-73
2023/08/28 00:06:53;;;;;;;3.10;2.07;;;25.50;57.40;;;;;;5033617;28;20652;-73
2023/08/28 00:09:19;;;;;;;3.87;2.40;;;25.50;57.40;;;;;;5032845;28;20641;-73
2023/08/28 00:11:44;;;;;;;3.30;2.20;;;25.50;57.40;;;;;;5033227;28;20621;-73
2023/08/28 00:14:10;;;;;;;3.00;2.53;;;25.50;57.40;;;;;;5033558;28;20214;-73
2023/08/28 00:16:36;;;;;;;3.23;2.23;;;25.50;57.40;;;;;;5033786;28;20175;-73
2023/08/28 00:19:02;;;;;;;2.20;1.67;;;25.50;57.40;;;;;;5032264;28;20184;-73
2023/08/28 00:21:29;;;;;;;2.37;1.97;;;25.50;57.40;;;;;;5033332;28;20199;-73
2023/08/28 00:23:55;;;;;;;2.90;1.60;;;25.50;57.40;;;;;;5033257;28;20585;-73
2023/08/28 00:26:20;;;;;;;3.70;1.73;;;25.50;57.40;;;;;;5033599;28;20505;-72
2023/08/28 00:28:46;;;;;;;2.47;1.60;;;25.50;57.40;;;;;;5033234;28;20594;-73
2023/08/28 00:31:12;;;;;;;2.30;2.10;;;25.50;57.40;;;;;;5033039;28;20207;-73
2023/08/28 00:33:37;;;;;;;3.00;2.17;;;25.50;57.40;;;;;;5031886;28;20202;-73
2023/08/28 00:36:03;;;;;;;3.00;1.77;;;25.50;57.40;;;;;;5033136;28;20191;-73
2023/08/28 00:38:29;;;;;;;3.57;2.30;;;25.50;57.40;;;;;;5033155;28;20187;-73
2023/08/28 00:40:54;;;;;;;6.73;2.80;;;25.50;57.40;;;;;;5032942;28;20449;-73
2023/08/28 00:43:20;;;;;;;3.53;2.07;;;25.50;57.40;;;;;;5032754;28;20286;-72
2023/08/28 00:45:48;;;;;;;2.70;2.13;;;25.50;57.40;;;;;;5031987;28;20218;-72
2023/08/28 00:48:16;;;;;;;2.53;1.80;;;25.50;57.40;;;;;;5031674;28;20536;-72
2023/08/28 00:50:43;;;;;;;4.00;2.27;;;25.50;57.40;;;;;;5032207;28;20430;-73
2023/08/28 00:53:11;;;;;;;3.20;1.73;;;25.50;57.40;;;;;;5033008;28;20410;-73
2023/08/28 00:55:37;;;;;;;1.63;1.53;;;25.50;57.40;;;;;;5032527;28;20418;-72
2023/08/28 00:58:03;;;;;;;2.43;2.00;;;25.50;57.40;;;;;;5032846;28;20998;-73
2023/08/28 01:00:29;;;;;;;2.23;2.00;;;25.50;57.40;;;;;;5032690;28;20652;-72
2023/08/28 01:02:55;;;;;;;2.13;1.93;;;25.50;57.40;;;;;;5031319;28;20493;-73
2023/08/28 01:05:42;;;;;;;2.10;1.70;;;25.50;57.40;;;;;;5032577;28;20167;-73
2023/08/28 01:08:28;;;;;;;1.93;1.73;;;25.50;57.40;;;;;;5031270;28;20506;-72
2023/08/28 01:11:00;;;;;;;2.37;1.83;;;25.50;57.40;;;;;;5032155;28;20426;-73
2023/08/28 01:13:36;;;;;;;3.37;2.97;;;25.50;57.40;;;;;;5030511;28;20407;-72
2023/08/28 01:16:02;;;;;;;2.33;1.70;;;25.50;57.40;;;;;;5032449;28;20406;-72
2023/08/28 01:18:28;;;;;;;1.80;1.60;;;25.50;57.40;;;;;;5032441;28;20896;-72
2023/08/28 01:20:54;;;;;;;2.53;1.83;;;25.50;57.40;;;;;;5032200;28;20478;-72
2023/08/28 01:23:41;;;;;;;3.10;2.00;;;25.50;57.40;;;;;;5032309;28;20191;-73
2023/08/28 01:26:07;;;;;;;3.87;2.93;;;25.50;57.40;;;;;;5032338;28;20167;-72
2023/08/28 01:28:32;;;;;;;2.50;2.10;;;25.50;57.40;;;;;;5032232;28;20978;-72
2023/08/28 01:30:58;;;;;;;4.13;2.10;;;25.40;57.40;;;;;;5032306;28;20533;-73
2023/08/28 01:33:24;;;;;;;2.37;2.17;;;25.40;58.00;;;;;;5032502;28;20164;-73
2023/08/28 01:36:00;;;;;;;2.60;2.10;;;25.40;57.40;;;;;;5032387;28;20599;-72
2023/08/28 01:38:37;;;;;;;2.70;2.17;;;25.40;57.30;;;;;;5032187;28;20240;-72
2023/08/28 01:41:07;;;;;;;3.80;2.00;;;25.40;57.40;;;;;;5032049;28;20433;-72
2023/08/28 01:43:39;;;;;;;3.20;1.80;;;25.40;57.40;;;;;;5032380;28;20491;-72
2023/08/28 01:46:06;;;;;;;2.23;1.93;;;25.50;57.50;;;;;;5032049;28;20989;-72
2023/08/28 01:48:35;;;;;;;3.90;2.17;;;25.40;57.90;;;;;;5032245;28;20939;-72
2023/08/28 01:51:01;;;;;;;1.93;1.73;;;25.40;57.40;;;;;;5032215;28;20426;-72
2023/08/28 01:53:27;;;;;;;2.13;1.93;;;25.40;57.40;;;;;;5031857;28;20950;-73
2023/08/28 01:56:07;;;;;;;2.80;2.30;;;25.40;57.30;;;;;;5032037;28;20262;-72
2023/08/28 01:58:39;;;;;;;2.20;1.83;;;25.40;57.30;;;;;;5031903;28;20441;-72
2023/08/28 02:01:04;;;;;;;2.00;1.80;;;25.40;57.30;;;;;;5031881;28;20433;-72
2023/08/28 02:03:31;;;;;;;2.47;1.60;;;25.40;57.40;;;;;;5035097;28;20973;-73
2023/08/28 02:05:57;;;;;;;2.40;2.20;;;25.40;57.40;;;;;;5035943;28;20174;-71
2023/08/28 02:08:23;;;;;;;1.90;1.80;;;25.40;57.40;;;;;;5035836;28;20398;-72
2023/08/28 02:10:48;;;;;;;2.20;1.90;;;25.40;57.30;;;;;;5035768;28;20191;-72
2023/08/28 02:13:14;;;;;;;2.80;1.70;;;25.40;57.30;;;;;;5035764;28;20259;-72
2023/08/28 02:15:39;;;;;;;2.90;2.13;;;25.40;57.30;;;;;;5036062;28;20699;-73
2023/08/28 02:18:06;;;;;;;1.87;1.70;;;25.40;57.40;;;;;;5034387;28;20172;-73
2023/08/28 02:20:32;;;;;;;2.47;2.27;;;25.40;57.30;;;;;;5035616;28;20183;-73
2023/08/28 02:22:58;;;;;;;2.37;2.17;;;25.40;57.30;;;;;;5035480;28;20445;-72
2023/08/28 02:25:24;;;;;;;2.30;2.10;;;25.40;57.30;;;;;;5034249;28;20545;-73
2023/08/28 02:27:50;;;;;;;2.90;2.07;;;25.40;57.30;;;;;;5035550;28;20501;-72
2023/08/28 02:30:16;;;;;;;2.50;2.07;;;25.40;57.30;;;;;;5035563;28;20243;-72
2023/08/28 02:32:42;;;;;;;2.10;1.83;;;25.40;57.30;;;;;;5035362;28;20444;-72
2023/08/28 02:35:09;;;;;;;2.23;2.03;;;25.40;57.40;;;;;;5035462;28;20414;-73
2023/08/28 02:37:35;;;;;;;2.23;2.03;;;25.40;57.30;;;;;;5035345;28;20255;-73
2023/08/28 02:40:01;;;;;;;2.90;1.63;;;25.40;57.30;;;;;;5035384;28;20537;-73
2023/08/28 02:42:26;;;;;;;3.10;1.70;;;25.40;57.30;;;;;;5035169;28;20282;-73
2023/08/28 02:44:52;;;;;;;2.47;2.27;;;25.40;57.30;;;;;;5035189;28;20202;-73
2023/08/28 02:47:17;;;;;;;2.97;2.20;;;25.40;57.40;;;;;;5035225;28;20570;-73
2023/08/28 02:49:43;;;;;;;2.27;1.93;;;25.30;57.30;;;;;;5035223;28;20180;-73
2023/08/28 02:52:09;;;;;;;2.53;1.93;;;25.30;57.40;;;;;;5035025;28;20554;-73
2023/08/28 02:54:34;;;;;;;2.57;2.00;;;25.30;57.40;;;;;;5035105;28;20183;-73
2023/08/28 02:57:00;;;;;;;3.00;1.93;;;25.30;57.40;;;;;;5034989;28;20195;-72
2023/08/28 02:59:27;;;;;;;2.50;2.30;;;25.30;57.40;;;;;;5034909;28;20172;-73
2023/08/28 03:01:53;;;;;;;2.53;2.33;;;25.20;57.40;;;;;;5033510;28;20448;-72
2023/08/28 03:04:18;;;;;;;2.20;2.00;;;25.20;57.40;;;;;;5034890;28;20453;-72
2023/08/28 03:06:44;;;;;;;2.20;1.67;;;25.10;57.40;;;;;;5034844;28;20251;-72
2023/08/28 03:09:10;;;;;;;3.13;1.87;;;25.20;57.40;;;;;;5034694;28;20167;-72
2023/08/28 03:11:36;;;;;;;1.97;1.60;;;25.10;57.40;;;;;;5034606;28;20192;-73
2023/08/28 03:14:02;;;;;;;2.40;2.10;;;25.20;57.50;;;;;;5032809;28;20505;-72
2023/08/28 03:16:28;;;;;;;2.30;2.10;;;25.20;57.50;;;;;;5034642;28;20207;-73
2023/08/28 03:18:54;;;;;;;2.10;1.90;;;25.20;57.50;;;;;;5034536;28;20417;-72
2023/08/28 03:21:19;;;;;;;2.30;1.90;;;25.20;57.50;;;;;;5034591;28;20207;-72
2023/08/28 03:23:45;;;;;;;2.00;1.80;;;25.20;57.50;;;;;;5034505;28;20602;-73
2023/08/28 03:26:11;;;;;;;2.17;1.90;;;25.20;57.50;;;;;;5034714;28;20258;-73
2023/08/28 03:28:37;;;;;;;2.57;2.00;;;25.20;57.50;;;;;;5034449;28;20653;-72
2023/08/28 03:31:02;;;;;;;2.83;2.13;;;25.20;57.50;;;;;;5034116;28;20234;-73
2023/08/28 03:33:28;;;;;;;1.73;1.60;;;25.20;57.40;;;;;;5034635;28;20183;-73
2023/08/28 03:35:54;;;;;;;2.03;1.83;;;25.20;57.50;;;;;;5034376;28;20550;-73
2023/08/28 03:38:20;;;;;;;3.07;2.10;;;25.20;57.40;;;;;;5034450;28;20426;-73
2023/08/28 03:40:46;;;;;;;3.67;2.30;;;25.20;57.40;;;;;;5034130;28;20192;-73
2023/08/28 03:43:13;;;;;;;2.20;2.00;;;25.20;57.40;;;;;;5034039;28;20456;-73
2023/08/28 03:45:39;;;;;;;2.30;2.10;;;25.20;57.40;;;;;;5032820;28;20414;-72
2023/08/28 03:48:05;;;;;;;4.43;2.23;;;25.20;57.40;;;;;;5034001;28;20419;-72
2023/08/28 03:50:30;;;;;;;3.10;2.60;;;25.20;57.40;;;;;;5033959;28;20213;-73
2023/08/28 03:52:57;;;;;;;2.87;2.33;;;25.10;57.40;;;;;;5033968;28;20414;-72
2023/08/28 03:55:23;;;;;;;2.97;2.50;;;25.10;57.50;;;;;;5033846;28;20164;-73
2023/08/28 03:57:50;;;;;;;2.57;2.37;;;25.00;57.50;;;;;;5034094;28;20924;-72
2023/08/28 04:00:16;;;;;;;2.50;2.27;;;25.00;57.60;;;;;;5033824;28;20449;-73
2023/08/28 04:02:42;;;;;;;4.53;2.50;;;25.00;57.50;;;;;;5033595;28;20454;-73
2023/08/28 04:05:08;;;;;;;5.27;2.87;;;25.00;57.60;;;;;;5033738;28;20422;-72
2023/08/28 04:07:34;;;;;;;3.90;2.70;;;25.00;57.60;;;;;;5032395;28;20183;-72
2023/08/28 04:10:00;;;;;;;2.50;2.30;;;25.00;57.60;;;;;;5033473;28;20441;-73
2023/08/28 04:12:26;;;;;;;3.20;1.87;;;25.00;57.60;;;;;;5033530;28;20537;-73
2023/08/28 04:14:51;;;;;;;3.10;2.63;;;25.00;57.50;;;;;;5033491;28;20225;-72
2023/08/28 04:17:17;;;;;;;3.20;2.03;;;25.00;57.50;;;;;;5033690;28;20820;-72
2023/08/28 04:19:43;;;;;;;2.47;2.20;;;25.00;57.50;;;;;;5033460;28;20226;-72
2023/08/28 04:22:09;;;;;;;2.40;2.10;;;25.00;57.50;;;;;;5033335;28;20190;-72
2023/08/28 04:24:34;;;;;;;2.20;2.00;;;25.00;57.50;;;;;;5033248;28;20817;-72
2023/08/28 04:27:00;;;;;;;2.47;1.93;;;25.00;57.50;;;;;;5032959;28;20175;-73
2023/08/28 04:29:25;;;;;;;3.20;2.10;;;25.10;57.50;;;;;;5033093;28;20266;-72
2023/08/28 04:31:52;;;;;;;2.77;2.27;;;25.10;57.50;;;;;;5033043;28;20200;-72
2023/08/28 04:34:18;;;;;;;2.40;2.13;;;25.00;57.40;;;;;;5033411;28;20179;-73
2023/08/28 04:36:43;;;;;;;2.67;2.20;;;25.10;57.50;;;;;;5033079;28;20429;-72
2023/08/28 04:39:09;;;;;;;3.17;2.00;;;25.10;57.40;;;;;;5033060;28;20203;-72
2023/08/28 04:41:34;;;;;;;2.37;2.17;;;25.10;57.40;;;;;;5033082;28;20200;-71
2023/08/28 04:44:00;;;;;;;2.27;1.90;;;25.10;57.40;;;;;;5032870;28;20191;-72
2023/08/28 04:46:26;;;;;;;2.60;1.97;;;25.10;57.40;;;;;;5032865;28;20726;-71
2023/08/28 04:48:51;;;;;;;4.77;2.10;;;25.10;57.40;;;;;;5032874;28;20172;-72
2023/08/28 04:51:17;;;;;;;2.47;2.23;;;25.10;57.30;;;;;;5032682;28;20190;-73
2023/08/28 04:53:43;;;;;;;3.37;2.40;;;25.10;57.30;;;;;;5032789;28;20179;-73
2023/08/28 04:56:08;;;;;;;2.50;2.00;;;25.00;57.30;;;;;;5032707;28;20234;-72
2023/08/28 04:58:34;;;;;;;2.10;1.77;;;25.00;57.30;;;;;;5032635;28;20195;-72
2023/08/28 05:01:00;;;;;;;2.60;1.73;;;25.00;57.30;;;;;;5032825;28;20194;-73
2023/08/28 05:03:26;;;;;;;2.50;1.90;;;25.10;57.30;;;;;;5032732;28;20460;-73
2023/08/28 05:05:52;;;;;;;2.40;2.20;;;25.00;57.20;;;;;;5032675;28;20168;-73
2023/08/28 05:08:18;;;;;;;5.17;1.90;;;25.10;57.30;;;;;;5031093;28;20206;-72
2023/08/28 05:10:43;;;;;;;2.60;2.40;;;25.10;57.30;;;;;;5032274;28;20850;-72
2023/08/28 05:13:09;;;;;;;2.37;2.17;;;25.10;57.20;;;;;;5032464;28;20176;-73
2023/08/28 05:15:35;;;;;;;2.23;1.80;;;25.10;57.20;;;;;;5031040;28;20190;-72
2023/08/28 05:18:01;;;;;;;1.97;1.87;;;25.10;57.20;;;;;;5032634;28;20175;-72
2023/08/28 05:20:28;;;;;;;2.27;2.07;;;25.10;57.20;;;;;;5032152;28;20176;-72
2023/08/28 05:22:54;;;;;;;2.10;1.90;;;25.10;57.20;;;;;;5032383;28;20435;-72
2023/08/28 05:25:19;;;;;;;2.10;1.90;;;25.10;57.20;;;;;;5032219;28;20418;-72
2023/08/28 05:27:45;;;;;;;2.37;1.70;;;25.10;57.20;;;;;;5032128;28;20376;-72
2023/08/28 05:30:11;;;;;;;2.13;1.87;;;25.10;57.20;;;;;;5030840;28;20230;-71
2023/08/28 05:32:36;;;;;;;2.27;1.83;;;25.10;57.20;;;;;;5031994;28;20207;-72
2023/08/28 05:35:03;;;;;;;2.27;2.07;;;25.10;57.20;;;;;;5031765;28;20415;-72
2023/08/28 05:37:29;;;;;;;2.30;2.10;;;25.10;57.10;;;;;;5031805;28;20183;-72
2023/08/28 05:39:54;;;;;;;2.37;2.00;;;25.10;57.10;;;;;;5032013;28;20410;-71
2023/08/28 05:42:20;;;;;;;2.73;2.30;;;25.00;57.00;;;;;;5031924;28;20195;-71
2023/08/28 05:44:46;;;;;;;2.13;1.93;;;25.00;57.00;;;;;;5031924;28;20710;-71
2023/08/28 05:47:12;;;;;;;3.00;2.20;;;25.00;57.00;;;;;;5031987;28;20594;-72
2023/08/28 05:49:37;;;;;;;2.43;2.20;;;25.00;57.00;;;;;;5032005;28;20168;-72
2023/08/28 05:52:04;;;;;;;3.60;2.87;;;25.00;57.00;;;;;;5031904;28;20434;-72
2023/08/28 05:54:30;;;;;;;2.73;2.00;;;25.00;57.00;;;;;;5031903;28;20172;-72
2023/08/28 05:56:56;;;;;;;2.60;2.00;;;25.00;56.90;;;;;;5031753;28;20440;-71
2023/08/28 05:59:21;;;;;;;3.83;2.50;;;25.00;56.90;;;;;;5032062;28;20172;-72
2023/08/28 06:01:47;;;;;;;2.70;2.00;;;25.00;56.90;;;;;;5030528;28;20579;-70
2023/08/28 06:04:12;;;;;;;4.93;2.10;;;25.00;56.90;;;;;;5031859;28;20322;-72
2023/08/28 06:06:38;;;;;;;3.03;1.90;;;25.00;56.90;;;;;;5031857;28;20168;-72
2023/08/28 06:09:04;;;;;;;2.17;1.97;;;25.00;56.90;;;;;;5031899;28;20167;-72
2023/08/28 06:11:30;;;;;;;3.20;2.50;;;24.90;56.80;;;;;;5031827;28;20795;-72
2023/08/28 06:13:56;;;;;;;2.80;2.10;;;25.00;56.80;;;;;;5030183;28;20418;-72
2023/08/28 06:16:21;;;;;;;2.17;1.77;;;24.90;56.80;;;;;;5031387;28;20183;-71
2023/08/28 06:18:47;;;;;;;3.40;2.10;;;24.90;56.70;;;;;;5030114;28;21519;-71
2023/08/28 06:21:13;;;;;;;4.47;2.60;;;24.90;56.70;;;;;;5028764;28;20632;-72
2023/08/28 06:23:38;;;;;;;3.73;1.83;;;24.90;56.60;;;;;;5031054;28;20322;-72
2023/08/28 06:26:04;;;;;;;3.53;2.20;;;24.90;56.70;;;;;;5031301;28;20172;-72
2023/08/28 06:28:29;;;;;;;2.20;2.00;;;24.90;56.70;;;;;;5031367;28;20695;-72
2023/08/28 06:30:55;;;;;;;2.90;2.50;;;24.90;56.60;;;;;;5031207;28;20219;-71
2023/08/28 06:33:21;;;;;;;2.67;1.90;;;24.90;56.60;;;;;;5031238;28;20637;-72
2023/08/28 06:35:47;;;;;;;3.07;2.17;;;24.90;56.60;;;;;;5031322;28;20179;-71
2023/08/28 06:38:13;;;;;;;3.20;2.00;;;24.90;56.60;;;;;;5028702;28;20823;-72
2023/08/28 06:40:39;;;;;;;4.10;2.30;;;24.90;56.50;;;;;;5031036;28;20403;-72
2023/08/28 06:43:04;;;;;;;2.40;2.20;;;24.90;56.50;;;;;;5030959;28;20246;-70
2023/08/28 06:45:31;;;;;;;2.20;1.73;;;24.90;56.50;;;;;;5031757;28;20163;-72
2023/08/28 06:47:57;;;;;;;2.13;1.80;;;24.80;56.40;;;;;;5030042;28;20241;-73
2023/08/28 06:50:24;;;;;;;2.80;2.17;;;24.80;56.30;;;;;;5034068;28;20779;-71
2023/08/28 06:52:49;;;;;;;1.93;1.73;;;24.80;56.30;;;;;;5035458;28;20445;-73
2023/08/28 06:55:15;;;;;;;2.40;2.10;;;24.70;56.20;;;;;;5035072;28;20870;-73
2023/08/28 06:57:41;;;;;;;2.60;2.10;;;24.70;56.30;;;;;;5035047;28;20176;-73
2023/08/28 07:00:08;;;;;;;2.00;1.83;;;24.70;56.30;;;;;;5034879;28;20231;-73
2023/08/28 07:02:36;;;;;;;3.60;2.07;;;24.70;56.30;;;;;;5035083;28;20566;-73
2023/08/28 07:05:01;;;;;;;2.80;1.80;;;24.70;56.40;;;;;;5033040;28;20946;-73
2023/08/28 07:07:27;;;;;;;2.50;1.90;;;24.80;56.40;;;;;;5034548;28;20411;-73
2023/08/28 07:09:55;;;;;;;2.80;1.50;;;24.80;56.50;;;;;;5034922;28;20237;-72
2023/08/28 07:12:20;;;;;;;1.93;1.67;;;24.80;56.50;;;;;;5034608;28;20195;-73
2023/08/28 07:15:12;;;;;;;1.87;1.77;;;24.80;56.40;;;;;;5034357;28;20422;-73
2023/08/28 07:17:37;;;;;;;1.70;1.60;;;24.80;56.40;;;;;;5032405;28;20175;-74
2023/08/28 07:20:04;;;;;;;2.23;1.73;;;24.80;56.50;;;;;;5034134;28;20422;-74
2023/08/28 07:22:30;;;;;;;2.03;1.80;;;24.80;56.50;;;;;;5034333;28;20279;-73
2023/08/28 07:24:56;;;;;;;2.00;1.80;;;24.80;56.50;;;;;;5032574;28;20974;-72
2023/08/28 07:27:22;;;;;;;1.60;1.40;;;24.80;56.50;;;;;;5057409;28;20502;-73
2023/08/28 07:29:47;;;;;;;1.70;1.50;;;24.80;56.50;;;;;;5033864;28;20202;-73
2023/08/28 07:32:13;;;;;;;2.00;1.80;;;24.80;56.50;;;;;;5033733;28;20990;-73
2023/08/28 07:34:39;;;;;;;1.70;1.50;;;24.80;56.50;;;;;;5033732;28;20586;-73
2023/08/28 07:37:05;;;;;;;2.10;1.63;;;24.80;56.50;;;;;;5033298;28;20183;-73
2023/08/28 07:39:31;;;;;;;4.83;2.10;;;24.80;56.50;;;;;;5032128;28;20660;-73
2023/08/28 07:41:57;;;;;;;2.23;1.57;;;24.80;56.50;;;;;;5034402;28;20434;-71
2023/08/28 07:44:23;;;;;;;1.93;1.67;;;24.70;56.40;;;;;;5034018;28;20354;-70
2023/08/28 07:46:48;;;;;;;3.63;2.00;;;24.70;56.40;;;;;;5034371;28;20506;-70
2023/08/28 07:49:14;;;;;;;3.80;1.77;;;24.70;56.40;;;;;;5034002;28;20226;-71
2023/08/28 07:51:39;;;;;;;2.50;2.00;;;24.70;56.30;;;;;;5034365;28;20196;-70
2023/08/28 07:54:05;;;;;;;3.33;1.60;;;24.80;56.40;;;;;;5033047;28;20187;-70
2023/08/28 07:56:30;;;;;;;2.00;1.80;;;24.80;56.40;;;;;;5033811;28;20180;-70
2023/08/28 07:58:56;;;;;;;3.03;2.00;;;24.80;56.40;;;;;;5033946;28;20180;-70
2023/08/28 08:01:22;;;;;;;3.20;1.90;;;24.80;56.50;;;;;;5033536;28;20195;-70
2023/08/28 08:03:48;;;;;;;2.63;1.90;;;24.80;56.50;;;;;;5033730;28;20299;-71
2023/08/28 08:06:13;;;;;;;2.77;2.27;;;24.80;56.50;;;;;;5033667;28;20187;-68
2023/08/28 08:08:39;;;;;;;2.70;2.10;;;24.80;56.50;;;;;;5033482;28;20233;-70
2023/08/28 08:11:05;;;;;;;1.97;1.60;;;24.80;56.50;;;;;;5033626;28;20574;-69
2023/08/28 08:13:30;;;;;;;2.67;2.20;;;24.80;56.50;;;;;;5033308;28;20221;-71
2023/08/28 08:15:56;;;;;;;2.20;1.67;;;24.80;56.60;;;;;;5032286;28;20718;-72
2023/08/28 08:18:21;;;;;;;2.90;1.90;;;24.80;56.50;;;;;;5033638;28;20176;-71
2023/08/28 08:20:47;;;;;;;14.23;2.83;;;24.80;56.50;;;;;;5033153;28;20562;-71
2023/08/28 08:23:13;;;;;;;13.57;3.63;;;24.80;56.60;;;;;;5032642;28;20203;-72
2023/08/28 08:25:39;;;;;;;11.90;2.60;;;24.80;56.60;;;;;;5032689;28;20514;-70
2023/08/28 08:28:05;;;;;;;17.23;2.23;;;24.80;56.60;;;;;;5033438;28;20176;-70
2023/08/28 08:30:30;;;;;;;5.03;2.63;;;24.80;56.60;;;;;;5033437;28;20281;-71
2023/08/28 08:32:56;;;;;;;7.30;2.33;;;24.80;56.50;;;;;;5033155;28;20176;-69
2023/08/28 08:35:21;;;;;;;4.67;1.77;;;24.80;56.60;;;;;;5033343;28;20182;-69
2023/08/28 08:37:52;;;;;;;9.23;2.33;;;24.80;56.60;;;;;;5033075;28;20255;-70
2023/08/28 08:40:22;;;;;;;3.77;2.40;;;24.80;56.60;;;;;;5033025;28;20163;-70
2023/08/28 08:42:48;;;;;;;2.60;1.87;;;24.80;56.60;;;;;;5032055;28;20409;-71
2023/08/28 08:45:14;;;;;;;3.30;2.00;;;24.80;56.60;;;;;;5032623;28;20560;-70
2023/08/28 08:47:41;;;;;;;7.30;2.10;;;24.80;56.60;;;;;;5032868;28;20694;-69
2023/08/28 08:50:08;;;;;;;6.90;2.17;;;24.90;56.60;;;;;;5032957;28;20426;-70
2023/08/28 08:52:38;;;;;;;2.67;1.97;;;24.90;56.70;;;;;;5032709;28;20434;-70
2023/08/28 08:55:15;;;;;;;5.87;2.30;;;24.90;56.70;;;;;;5032947;28;20418;-71
2023/08/28 08:57:44;;;;;;;4.90;1.70;;;24.90;56.60;;;;;;5032788;28;20406;-71
2023/08/28 09:00:18;;;;;;;5.33;1.87;;;24.90;56.70;;;;;;5032703;28;20414;-71
2023/08/28 09:02:43;;;;;;;6.17;2.10;;;24.90;56.70;;;;;;5032693;28;20430;-71
2023/08/28 09:05:10;;;;;;;2.23;1.67;;;24.90;56.70;;;;;;5032458;28;21031;-72
2023/08/28 09:07:37;;;;;;;4.30;2.40;;;24.90;56.60;;;;;;5032495;28;20268;-72
2023/08/28 09:10:04;;;;;;;8.10;2.40;;;24.90;56.60;;;;;;5031505;28;20786;-72
2023/08/28 09:12:30;;;;;;;5.17;1.90;;;24.90;56.60;;;;;;5033533;28;20430;-72
2023/08/28 09:14:55;;;;;;;3.67;2.00;;;24.90;56.60;;;;;;5033290;28;20480;-73
2023/08/28 09:17:21;;;;;;;2.03;1.60;;;24.90;56.40;;;;;;5032959;28;20176;-71
2023/08/28 09:19:48;;;;;;;3.00;1.73;;;24.90;56.50;;;;;;5032283;28;20262;-71
2023/08/28 09:22:13;;;;;;;1.93;1.80;;;24.90;56.50;;;;;;5028607;28;20204;-71
2023/08/28 09:24:39;;;;;;;2.73;2.07;;;24.90;56.50;;;;;;5031963;28;20457;-70
2023/08/28 09:27:04;;;;;;;2.03;1.60;;;24.90;56.50;;;;;;5030629;28;20187;-70
2023/08/28 09:29:30;;;;;;;2.93;2.20;;;24.90;56.60;;;;;;5031954;28;20250;-69
2023/08/28 09:32:03;;;;;;;2.77;1.83;;;24.90;56.50;;;;;;5031851;28;20207;-69
2023/08/28 09:34:40;;;;;;;2.40;2.20;;;24.90;56.50;;;;;;5031988;28;20179;-69
2023/08/28 09:37:09;;;;;;;3.87;2.03;;;24.90;56.40;;;;;;5031748;28;20457;-69
2023/08/28 09:39:41;;;;;;;4.43;1.90;;;24.90;56.30;;;;;;5031797;28;20469;-70
2023/08/28 09:42:08;;;;;;;2.27;1.73;;;24.90;56.30;;;;;;5031789;28;20540;-68
2023/08/28 09:44:36;;;;;;;2.90;2.00;;;24.80;56.30;;;;;;5031857;28;20454;-69
2023/08/28 09:47:02;;;;;;;3.93;2.10;;;24.80;56.30;;;;;;5032076;28;20414;-70
2023/08/28 09:49:28;;;;;;;2.97;1.90;;;24.80;56.20;;;;;;5032256;28;20914;-70
2023/08/28 09:51:58;;;;;;;2.57;2.37;;;24.80;56.20;;;;;;5031763;28;20553;-70
2023/08/28 09:54:24;;;;;;;2.60;2.07;;;24.80;56.20;;;;;;5030812;28;20421;-69
2023/08/28 09:56:51;;;;;;;3.47;2.13;;;24.80;56.20;;;;;;5032065;28;20444;-69
2023/08/28 09:59:16;;;;;;;2.53;2.33;;;24.80;56.20;;;;;;5031804;28;20980;-70
2023/08/28 10:01:42;;;;;;;2.53;1.80;;;24.80;56.10;;;;;;5031763;28;20430;-70
2023/08/28 10:04:12;;;;;;;2.33;2.13;;;24.80;56.00;;;;;;5031763;28;20202;-69
2023/08/28 10:06:53;;;;;;;2.33;2.13;;;24.80;56.00;;;;;;5031566;28;20414;-69
2023/08/28 10:09:22;;;;;;;2.07;1.87;;;24.80;55.90;;;;;;5031785;28;20382;-69
2023/08/28 10:11:50;;;;;;;2.57;2.30;;;24.80;55.90;;;;;;5031732;28;20418;-70
2023/08/28 10:14:19;;;;;;;3.23;2.83;;;24.80;55.90;;;;;;5031604;28;20786;-69
2023/08/28 10:16:52;;;;;;;2.83;2.63;;;24.80;55.90;;;;;;5031918;28;20919;-68
2023/08/28 10:19:27;;;;;;;2.40;2.10;;;24.80;56.00;;;;;;5031662;28;20390;-69
2023/08/28 10:21:54;;;;;;;3.27;2.30;;;24.80;55.90;;;;;;5031439;28;20433;-68
2023/08/28 10:24:21;;;;;;;3.77;2.27;;;24.80;56.00;;;;;;5032554;28;20545;-69
2023/08/28 10:26:47;;;;;;;4.20;2.50;;;24.80;56.00;;;;;;5033034;28;20500;-71
2023/08/28 10:29:17;;;;;;;2.83;2.30;;;24.80;55.90;;;;;;5033313;28;20410;-70
2023/08/28 10:31:43;;;;;;;2.63;2.23;;;24.80;56.00;;;;;;5033982;28;20466;-69
2023/08/28 10:34:11;;;;;;;2.30;2.10;;;24.80;56.00;;;;;;5035360;28;20422;-69
2023/08/28 10:36:38;;;;;;;2.60;2.40;;;24.80;55.90;;;;;;5035306;28;20409;-68
2023/08/28 10:39:04;;;;;;;2.40;2.20;;;24.80;56.00;;;;;;5035270;28;20816;-69
2023/08/28 10:41:32;;;;;;;2.63;2.40;;;24.90;56.20;;;;;;5035416;28;20858;-69
2023/08/28 10:43:59;;;;;;;2.33;1.87;;;24.90;56.10;;;;;;5035368;28;20452;-69
2023/08/28 10:46:28;;;;;;;3.20;1.90;;;24.90;56.10;;;;;;5035272;28;20406;-69
2023/08/28 10:49:03;;;;;;;2.33;1.90;;;24.90;56.00;;;;;;5035596;28;20415;-69
2023/08/28 10:51:31;;;;;;;2.87;1.87;;;24.90;55.90;;;;;;5034149;28;20442;-69
2023/08/28 10:54:04;;;;;;;2.00;1.80;;;24.90;55.90;;;;;;5035194;28;20417;-70
2023/08/28 10:56:34;;;;;;;3.17;2.00;;;24.90;55.90;;;;;;5035154;28;20433;-69
2023/08/28 10:59:26;;;;;;;1.97;1.80;;;24.90;56.00;;;;;;5035187;28;20481;-69
2023/08/28 11:01:54;;;;;;;2.97;2.03;;;24.90;56.00;;;;;;5029956;28;20442;-68
2023/08/28 11:04:21;;;;;;;2.27;2.00;;;24.90;55.90;;;;;;5034794;28;20446;-69
2023/08/28 11:06:47;;;;;;;2.23;2.00;;;24.90;55.50;;;;;;5034637;28;20438;-69
2023/08/28 11:09:28;;;;;;;2.63;1.90;;;24.90;55.30;;;;;;5033391;28;20441;-69
2023/08/28 11:12:00;;;;;;;2.20;2.00;;;24.90;55.20;;;;;;5034593;28;20461;-70
2023/08/28 11:14:39;;;;;;;1.80;1.70;;;24.90;55.20;;;;;;5034769;28;20911;-68
2023/08/28 11:17:07;;;;;;;2.83;2.30;;;24.90;55.30;;;;;;5034631;28;20402;-68
2023/08/28 11:19:53;;;;;;;3.10;2.10;;;24.90;55.30;;;;;;5035109;28;20402;-68
2023/08/28 11:22:32;;;;;;;2.50;1.90;;;24.90;55.10;;;;;;5034085;28;20426;-68
2023/08/28 11:24:59;;;;;;;2.23;1.80;;;24.90;55.00;;;;;;5034243;28;20472;-69
2023/08/28 11:27:32;;;;;;;2.50;2.30;;;24.90;55.10;;;;;;5034527;28;20410;-68
2023/08/28 11:29:59;;;;;;;3.60;2.93;;;24.90;54.90;;;;;;5034871;28;20507;-69
2023/08/28 11:32:26;;;;;;;3.50;2.10;;;24.90;55.00;;;;;;5032987;28;20451;-69
2023/08/28 11:34:52;;;;;;;3.30;2.43;;;24.90;54.80;;;;;;5033720;28;20415;-69
2023/08/28 11:37:34;;;;;;;2.50;2.10;;;24.90;54.80;;;;;;5033855;28;20407;-68
2023/08/28 11:40:06;;;;;;;2.43;2.00;;;24.90;54.60;;;;;;5034141;28;20176;-70
2023/08/28 11:42:32;;;;;;;2.00;1.80;;;24.90;54.90;;;;;;5034546;28;20430;-69
2023/08/28 11:44:58;;;;;;;3.10;2.03;;;24.90;54.80;;;;;;5033712;28;21032;-70
2023/08/28 11:47:28;;;;;;;2.20;2.10;;;24.90;54.60;;;;;;5034114;28;20418;-69
2023/08/28 11:49:55;;;;;;;2.10;1.90;;;24.90;54.50;;;;;;5034366;28;20622;-69
2023/08/28 11:52:21;;;;;;;2.13;1.93;;;24.80;54.30;;;;;;5032616;28;20951;-69
2023/08/28 11:54:47;;;;;;;4.00;2.47;;;24.80;54.20;;;;;;5033981;28;20414;-69
2023/08/28 11:57:18;;;;;;;2.00;1.90;;;24.80;54.10;;;;;;5033909;28;20488;-68
2023/08/28 11:59:48;;;;;;;1.60;1.50;;;24.80;54.10;;;;;;5032718;28;20469;-69
2023/08/28 12:02:14;;;;;;;4.23;2.23;;;24.80;54.00;;;;;;5033923;28;20483;-67
2023/08/28 12:04:41;;;;;;;2.00;1.77;;;24.80;53.90;;;;;;5033899;28;20442;-69
2023/08/28 12:07:21;;;;;;;3.00;2.10;;;24.70;54.10;;;;;;5032525;28;20425;-69
2023/08/28 12:09:48;;;;;;;2.10;1.90;;;24.70;54.00;;;;;;5034271;28;20905;-67
2023/08/28 12:12:17;;;;;;;2.30;2.10;;;24.70;54.00;;;;;;5033734;28;20434;-68
2023/08/28 12:14:44;;;;;;;2.67;1.93;;;24.70;54.00;;;;;;5034337;28;20472;-69
2023/08/28 12:17:24;;;;;;;2.00;1.70;;;24.70;54.20;;;;;;5033378;28;20417;-68
2023/08/28 12:19:50;;;;;;;2.00;1.80;;;24.70;54.20;;;;;;5033284;28;20398;-69
2023/08/28 12:22:17;;;;;;;2.13;1.93;;;24.70;54.20;;;;;;5033185;28;20426;-70
2023/08/28 12:24:44;;;;;;;1.77;1.60;;;24.70;54.10;;;;;;5031623;28;20465;-69
2023/08/28 12:27:10;;;;;;;4.10;1.77;;;24.70;54.10;;;;;;5031700;28;20411;-70
2023/08/28 12:29:36;;;;;;;2.40;1.80;;;24.60;54.00;;;;;;5033186;28;20751;-71
2023/08/28 12:32:06;;;;;;;2.00;1.90;;;24.60;53.90;;;;;;5032788;28;20446;-71
2023/08/28 12:34:32;;;;;;;1.50;1.40;;;24.70;54.10;;;;;;5033025;28;20410;-70
2023/08/28 12:37:06;;;;;;;2.13;1.77;;;24.70;54.20;;;;;;5033358;28;20414;-68
2023/08/28 12:39:32;;;;;;;2.30;1.60;;;24.70;54.30;;;;;;5033123;28;20410;-70
2023/08/28 12:41:57;;;;;;;1.83;1.60;;;24.70;54.50;;;;;;5031510;28;20426;-71
2023/08/28 12:44:24;;;;;;;2.10;2.00;;;24.70;54.50;;;;;;5031269;28;20482;-69
2023/08/28 12:46:50;;;;;;;2.30;1.70;;;24.70;54.50;;;;;;5031934;28;20172;-70